Time;durP1;ratioP1;P1;durP2;ratioP2;P2;SDS_P1;SDS_P2;PMS_P1;PMS_P2;Temp;Humidity;BMP_temperature;BMP_pressure;BME280_temperature;BME280_humidity;BME280_pressure;Samples;Min_cycle;Max_cycle;Signal;HPM_P1;HPM_P2
2023/02/09 00:00:27;;;;;;;15.50;6.50;;;;;;;-4.55;70.68;97704.84;4995618;28;20050;-80
2023/02/09 00:02:55;;;;;;;12.65;5.70;;;;;;;-4.54;70.67;97701.19;4996031;28;20053;-81
2023/02/09 00:05:22;;;;;;;15.98;6.70;;;;;;;-4.54;70.74;97705.66;4996013;28;20057;-79
2023/02/09 00:07:48;;;;;;;14.45;6.57;;;;;;;-4.54;71.04;97703.84;4996476;28;20120;-77
2023/02/09 00:10:15;;;;;;;13.43;5.90;;;;;;;-4.56;71.20;97697.88;4996385;28;20073;-78
2023/02/09 00:15:26;;;;;;;14.52;6.20;;;;;;;-4.58;70.96;97704.41;4995682;28;20057;-80
2023/02/09 00:17:52;;;;;;;13.02;5.85;;;;;;;-4.58;70.79;97707.88;4996021;28;20058;-79
2023/02/09 00:20:20;;;;;;;14.57;6.55;;;;;;;-4.69;71.15;97708.38;4995407;28;20050;-77
2023/02/09 00:22:47;;;;;;;14.68;6.38;;;;;;;-4.69;71.08;97707.56;4994645;28;20046;-78
2023/02/09 00:25:13;;;;;;;11.25;5.65;;;;;;;-4.71;71.28;97705.09;4996374;28;20042;-78
2023/02/09 00:27:40;;;;;;;16.17;6.25;;;;;;;-4.82;71.78;97702.91;4996788;28;20050;-78
2023/02/09 00:30:07;;;;;;;13.57;6.47;;;;;;;-4.87;72.28;97705.31;4996055;28;20061;-78
2023/02/09 00:32:34;;;;;;;13.25;6.10;;;;;;;-4.87;72.49;97705.31;4997215;28;20046;-83
2023/02/09 00:35:00;;;;;;;16.27;6.75;;;;;;;-4.90;72.86;97700.41;4996576;28;20057;-78
2023/02/09 00:37:28;;;;;;;14.43;6.60;;;;;;;-4.92;72.89;97691.75;4997049;28;20061;-79
2023/02/09 00:39:55;;;;;;;11.27;5.90;;;;;;;-4.87;72.47;97690.19;4994028;28;20061;-78
2023/02/09 00:42:21;;;;;;;11.95;6.05;;;;;;;-4.85;72.46;97695.34;4993317;28;20120;-82
2023/02/09 00:44:48;;;;;;;14.63;6.20;;;;;;;-4.83;72.16;97701.28;4993645;28;20050;-78
2023/02/09 00:47:14;;;;;;;12.20;5.82;;;;;;;-4.92;71.73;97703.22;4992986;28;20725;-78
2023/02/09 00:49:41;;;;;;;15.27;6.82;;;;;;;-5.06;72.47;97707.56;4993251;28;20054;-79
2023/02/09 00:52:07;;;;;;;14.10;6.32;;;;;;;-4.94;71.99;97709.75;4992372;28;20047;-77
2023/02/09 00:54:35;;;;;;;15.18;6.38;;;;;;;-4.89;72.28;97702.03;4993173;28;20054;-78
2023/02/09 00:57:04;;;;;;;14.75;6.35;;;;;;;-4.91;72.30;97715.47;4992691;28;20057;-79
2023/02/09 00:59:32;;;;;;;13.70;6.28;;;;;;;-4.94;72.72;97709.75;4992929;28;20454;-80
2023/02/09 01:01:58;;;;;;;12.77;6.50;;;;;;;-4.96;72.73;97711.75;4992891;28;20054;-77
2023/02/09 01:04:25;;;;;;;15.30;6.70;;;;;;;-5.04;73.05;97708.19;4992626;28;20101;-80
2023/02/09 01:06:51;;;;;;;12.02;6.00;;;;;;;-5.12;72.77;97708.28;4993301;28;20506;-78
2023/02/09 01:09:18;;;;;;;15.38;6.75;;;;;;;-5.13;72.61;97716.44;4992617;28;20054;-80
2023/02/09 01:11:46;;;;;;;14.93;6.70;;;;;;;-5.14;72.73;97714.81;4992211;28;20057;-78
2023/02/09 01:14:12;;;;;;;13.75;6.22;;;;;;;-5.13;72.97;97711.94;4992121;28;20050;-78
2023/02/09 01:16:39;;;;;;;14.68;6.47;;;;;;;-5.12;73.03;97713.59;4992587;28;20058;-76
2023/02/09 01:19:05;;;;;;;15.00;6.45;;;;;;;-5.11;72.68;97709.97;4992150;28;20061;-81
2023/02/09 01:21:33;;;;;;;14.27;6.75;;;;;;;-5.14;72.62;97702.34;4992151;28;20060;-77
2023/02/09 01:23:59;;;;;;;15.93;6.90;;;;;;;-5.13;72.71;97711.94;4992273;28;20053;-78
2023/02/09 01:26:26;;;;;;;13.60;6.07;;;;;;;-5.19;72.70;97711.88;4992269;28;20057;-78
2023/02/09 01:28:54;;;;;;;14.38;6.18;;;;;;;-5.23;73.02;97699.97;4992442;28;20057;-77
2023/02/09 01:31:24;;;;;;;13.80;6.45;;;;;;;-5.24;73.15;97709.78;4991760;28;20101;-77
2023/02/09 01:33:51;;;;;;;14.02;6.40;;;;;;;-5.28;73.00;97705.84;4992322;28;20053;-77
2023/02/09 01:36:19;;;;;;;15.57;6.60;;;;;;;-5.35;73.10;97707.59;4991715;28;20069;-78
2023/02/09 01:38:45;;;;;;;14.90;6.80;;;;;;;-5.41;73.44;97708.34;4992587;28;20623;-77
2023/02/09 01:41:12;;;;;;;17.30;6.85;;;;;;;-5.47;73.58;97711.72;4991859;28;20421;-78
2023/02/09 01:43:54;;;;;;;18.05;6.82;;;;;;;-5.51;73.87;97697.97;4991934;28;20053;-78
2023/02/09 01:46:22;;;;;;;14.90;6.43;;;;;;;-5.52;73.97;97701.66;4991600;28;20049;-79
2023/02/09 01:48:53;;;;;;;13.05;6.05;;;;;;;-5.56;74.16;97695.88;4992222;28;20145;-76
2023/02/09 01:51:20;;;;;;;13.75;6.13;;;;;;;-5.58;74.17;97697.91;4991328;28;20061;-78
2023/02/09 01:53:47;;;;;;;13.45;6.00;;;;;;;-5.60;74.48;97689.28;4981805;28;20137;-79
2023/02/09 01:56:18;;;;;;;14.73;7.15;;;;;;;-5.61;74.79;97692.94;4971658;28;20099;-77
2023/02/09 01:58:46;;;;;;;16.83;7.07;;;;;;;-5.63;75.32;97684.34;4991682;28;20050;-78
2023/02/09 02:01:14;;;;;;;16.17;7.25;;;;;;;-5.64;75.76;97682.69;4973487;28;20125;-78
2023/02/09 02:03:42;;;;;;;17.02;7.43;;;;;;;-5.63;75.87;97683.53;4991617;28;20046;-80
2023/02/09 02:06:14;;;;;;;16.30;7.00;;;;;;;-5.66;76.04;97679.41;4990232;28;20077;-77
2023/02/09 02:08:46;;;;;;;16.92;6.90;;;;;;;-5.66;76.61;97674.09;4972597;28;20410;-79
2023/02/09 02:11:14;;;;;;;15.80;7.38;;;;;;;-5.66;76.83;97676.75;4990838;28;20046;-78
2023/02/09 02:13:43;;;;;;;17.13;7.85;;;;;;;-5.68;77.29;97673.47;4992825;28;20042;-77
2023/02/09 02:16:34;;;;;;;15.95;6.50;;;;;;;-5.68;77.41;97680.59;4992366;28;20050;-77
2023/02/09 02:19:26;;;;;;;16.50;6.43;;;;;;;-5.75;77.48;97672.53;4992461;28;20055;-77
2023/02/09 02:22:39;;;;;;;15.82;6.80;;;;;;;-5.77;77.22;97682.50;4992079;28;20046;-78
2023/02/09 02:25:33;;;;;;;16.25;6.65;;;;;;;-5.82;76.79;97672.44;4985340;28;20047;-79
2023/02/09 02:28:21;;;;;;;15.30;6.82;;;;;;;-5.82;76.50;97676.94;4991860;28;20050;-76
2023/02/09 02:31:04;;;;;;;14.70;6.90;;;;;;;-5.90;76.55;97677.00;4992329;28;20038;-78
2023/02/09 02:33:41;;;;;;;16.42;6.85;;;;;;;-5.92;76.35;97674.56;4992638;28;20050;-78
2023/02/09 02:36:26;;;;;;;21.98;8.43;;;;;;;-5.94;76.07;97668.63;4992537;28;20061;-77
2023/02/09 02:39:00;;;;;;;13.95;6.40;;;;;;;-5.96;76.49;97667.16;4992828;28;20046;-78
2023/02/09 02:42:46;;;;;;;15.77;6.72;;;;;;;-5.94;76.67;97665.16;4991880;28;20050;-82
2023/02/09 02:44:20;;;;;;;15.80;6.30;;;;;;;-5.91;77.20;97665.56;4989628;28;20137;-81
2023/02/09 02:46:51;;;;;;;14.70;6.47;;;;;;;-5.89;77.39;97660.09;4991588;28;20667;-80
2023/02/09 02:49:29;;;;;;;14.70;6.78;;;;;;;-5.91;77.72;97659.47;4981367;28;20129;-79
2023/02/09 02:52:00;;;;;;;18.40;7.22;;;;;;;-5.93;77.76;97649.06;4989849;28;20042;-80
2023/02/09 02:54:32;;;;;;;13.48;6.45;;;;;;;-5.94;78.03;97644.75;4992804;28;20054;-80
2023/02/09 02:57:03;;;;;;;15.15;6.35;;;;;;;-5.96;77.62;97644.09;5000799;28;20110;-80
2023/02/09 02:59:32;;;;;;;17.67;6.55;;;;;;;-5.98;77.67;97640.00;4993777;28;20050;-79
2023/02/09 03:02:05;;;;;;;14.75;6.68;;;;;;;-5.98;78.02;97648.78;4995174;28;20054;-77
2023/02/09 03:04:35;;;;;;;13.73;6.43;;;;;;;-5.97;77.90;97641.63;4994243;28;20491;-80
2023/02/09 03:07:04;;;;;;;16.25;7.03;;;;;;;-6.00;78.42;97642.84;4995182;28;20277;-82
2023/02/09 03:09:31;;;;;;;16.73;6.60;;;;;;;-6.01;78.44;97645.66;4995371;28;20330;-79
2023/02/09 03:12:05;;;;;;;16.75;6.75;;;;;;;-6.01;77.89;97643.00;4993176;28;20043;-79
2023/02/09 03:14:42;;;;;;;17.35;7.00;;;;;;;-6.05;77.48;97643.38;4992721;28;20525;-83
2023/02/09 03:17:23;;;;;;;14.00;6.93;;;;;;;-6.06;77.36;97646.19;4991294;28;20047;-80
2023/02/09 03:19:56;;;;;;;16.15;6.90;;;;;;;-6.25;76.48;97647.56;4992696;28;20050;-80
2023/02/09 03:22:29;;;;;;;18.45;7.30;;;;;;;-6.34;76.57;97653.94;4990663;28;20414;-80
2023/02/09 03:25:00;;;;;;;;;;;;;;;-6.35;77.12;97646.97;4990711;28;20061;-81
2023/02/09 03:27:31;;;;;;;14.70;5.65;;;;;;;-6.35;77.93;97641.69;4990482;28;19941;-78
2023/02/09 03:30:03;;;;;;;16.25;6.32;;;;;;;-6.34;78.49;97648.63;4990387;28;20046;-81
2023/02/09 03:32:33;;;;;;;15.98;7.13;;;;;;;-6.30;78.84;97655.22;4970591;28;20557;-80
2023/02/09 03:35:01;;;;;;;21.38;6.85;;;;;;;-6.31;78.77;97649.09;4974111;28;20043;-78
2023/02/09 03:37:27;;;;;;;19.67;7.07;;;;;;;-6.29;79.16;97651.56;4973660;28;20051;-84
2023/02/09 03:39:54;;;;;;;14.40;7.00;;;;;;;-6.28;79.44;97653.22;4974031;28;20055;-82
2023/02/09 03:42:21;;;;;;;18.60;7.93;;;;;;;-6.27;79.42;97654.03;4974173;28;20050;-82
2023/02/09 03:44:47;;;;;;;19.17;7.38;;;;;;;-6.28;79.09;97660.34;4974664;28;20521;-84
2023/02/09 03:47:14;;;;;;;18.55;7.50;;;;;;;-6.32;78.96;97652.75;4974482;28;20050;-82
2023/02/09 03:49:41;;;;;;;15.02;7.18;;;;;;;-6.32;79.45;97652.75;4974657;28;20047;-84
2023/02/09 03:52:11;;;;;;;17.77;8.13;;;;;;;-6.33;79.58;97648.44;4974674;28;20047;-84
2023/02/09 03:54:38;;;;;;;16.85;7.07;;;;;;;-6.33;79.70;97644.97;4993958;28;20056;-79
2023/02/09 03:57:05;;;;;;;16.58;7.25;;;;;;;-6.33;79.57;97653.75;4992866;28;20046;-79
2023/02/09 03:59:34;;;;;;;18.45;7.05;;;;;;;-6.33;79.63;97655.56;4993919;28;20458;-82
2023/02/09 04:02:01;;;;;;;18.60;7.47;;;;;;;-6.32;79.80;97654.56;4976992;28;20561;-84
2023/02/09 04:04:28;;;;;;;16.35;7.82;;;;;;;-6.31;79.61;97650.94;4993685;28;20039;-81
2023/02/09 04:06:54;;;;;;;19.08;7.35;;;;;;;-6.31;79.61;97648.28;4992873;28;20499;-82
2023/02/09 04:09:23;;;;;;;18.33;7.10;;;;;;;-6.31;79.54;97658.88;4992984;28;20050;-82
2023/02/09 04:11:49;;;;;;;14.73;7.20;;;;;;;-6.33;79.48;97653.75;4993568;28;20506;-79
2023/02/09 04:14:16;;;;;;;15.05;6.72;;;;;;;-6.33;79.64;97660.88;4993336;28;20046;-80
2023/02/09 04:16:43;;;;;;;17.90;7.72;;;;;;;-6.35;79.42;97652.28;4993877;28;20130;-82
2023/02/09 04:19:11;;;;;;;14.73;6.95;;;;;;;-6.35;79.12;97657.59;4993293;28;20062;-79
2023/02/09 04:21:38;;;;;;;16.75;7.00;;;;;;;-6.37;78.99;97671.03;4993663;28;20050;-80
2023/02/09 04:24:06;;;;;;;17.00;7.28;;;;;;;-6.39;78.51;97664.25;4992282;28;20046;-81
2023/02/09 04:26:34;;;;;;;16.83;7.40;;;;;;;-6.40;78.20;97671.38;4993436;28;20521;-83
2023/02/09 04:29:01;;;;;;;14.43;7.10;;;;;;;-6.47;78.24;97670.44;4993335;28;20046;-81
2023/02/09 04:31:27;;;;;;;16.48;7.25;;;;;;;-6.50;78.61;97669.97;4993154;28;20054;-79
2023/02/09 04:33:54;;;;;;;20.38;8.65;;;;;;;-6.60;79.02;97665.72;4993440;28;20046;-81
2023/02/09 04:36:22;;;;;;;16.42;7.00;;;;;;;-6.59;79.25;97663.91;4992872;28;20523;-82
2023/02/09 04:38:48;;;;;;;17.55;6.38;;;;;;;-6.61;79.43;97657.97;4993149;28;20050;-84
2023/02/09 04:41:15;;;;;;;17.95;8.02;;;;;;;-6.63;79.44;97658.16;4992829;28;20046;-80
2023/02/09 04:43:43;;;;;;;16.38;6.75;;;;;;;-6.64;79.63;97653.00;4993097;28;20053;-82
2023/02/09 04:46:12;;;;;;;18.27;7.45;;;;;;;-6.64;79.85;97656.47;4991748;28;20049;-80
2023/02/09 04:48:39;;;;;;;14.73;6.50;;;;;;;-6.62;80.04;97659.78;4993068;28;20130;-81
2023/02/09 04:51:06;;;;;;;15.38;6.95;;;;;;;-6.61;80.14;97669.38;4992489;28;20054;-81
2023/02/09 04:53:32;;;;;;;15.32;6.97;;;;;;;-6.65;80.31;97676.03;4992584;28;20050;-81
2023/02/09 04:55:58;;;;;;;17.13;7.18;;;;;;;-6.69;80.31;97672.09;4992953;28;20050;-77
2023/02/09 05:01:13;;;;;;;16.00;6.97;;;;;;;-6.69;80.09;97671.25;4992230;28;20185;-80
2023/02/09 05:03:41;;;;;;;17.08;7.40;;;;;;;-6.67;80.01;97670.09;4992834;28;20048;-82
2023/02/09 05:06:08;;;;;;;15.75;6.65;;;;;;;-6.63;80.39;97666.09;4992450;28;20425;-79
2023/02/09 05:08:34;;;;;;;14.98;7.13;;;;;;;-6.68;80.13;97672.91;4992782;28;20054;-78
2023/02/09 05:11:01;;;;;;;16.55;6.93;;;;;;;-6.75;79.90;97669.31;4992681;28;20101;-86
2023/02/09 05:13:28;;;;;;;16.92;7.32;;;;;;;-6.83;80.09;97667.56;4992205;28;20046;-82
2023/02/09 05:15:55;;;;;;;18.17;7.43;;;;;;;-6.82;80.01;97666.56;4992266;28;20049;-80
2023/02/09 05:18:25;;;;;;;15.60;7.15;;;;;;;-6.84;79.94;97673.84;4992079;28;20053;-81
2023/02/09 05:20:51;;;;;;;17.27;6.97;;;;;;;-6.87;80.26;97668.91;4992443;28;20050;-78
2023/02/09 05:23:18;;;;;;;18.20;7.40;;;;;;;-6.85;80.09;97686.25;4991580;28;20046;-83
2023/02/09 05:25:46;;;;;;;13.25;6.95;;;;;;;-6.87;80.09;97679.50;4992377;28;20056;-85
2023/02/09 05:28:13;;;;;;;16.58;7.20;;;;;;;-6.88;80.20;97680.50;4991932;28;20046;-83
2023/02/09 05:30:40;;;;;;;14.82;7.28;;;;;;;-6.93;80.13;97675.75;4992375;28;20046;-85
2023/02/09 05:33:06;;;;;;;15.13;6.68;;;;;;;-6.89;80.07;97689.44;4991968;28;20054;-80
2023/02/09 05:35:34;;;;;;;15.82;6.63;;;;;;;-6.85;80.03;97694.22;4992256;28;20113;-77
2023/02/09 05:38:00;;;;;;;15.18;6.80;;;;;;;-6.92;79.95;97698.56;4992153;28;20442;-78
2023/02/09 05:40:27;;;;;;;14.23;6.57;;;;;;;-6.91;79.93;97700.22;4991891;28;20434;-81
2023/02/09 05:42:53;;;;;;;19.63;8.40;;;;;;;-6.98;79.87;97703.75;4991686;28;20050;-77
2023/02/09 05:45:22;;;;;;;17.25;7.72;;;;;;;-6.95;79.83;97703.38;4991282;28;20074;-79
2023/02/09 05:47:48;;;;;;;15.20;7.45;;;;;;;-6.97;79.73;97695.63;4992207;28;20054;-79
2023/02/09 05:50:15;;;;;;;14.98;6.90;;;;;;;-6.98;79.72;97693.97;4991434;28;20510;-80
2023/02/09 05:52:43;;;;;;;16.33;6.88;;;;;;;-6.97;79.82;97698.25;4991751;28;20046;-82
2023/02/09 05:55:10;;;;;;;16.83;7.90;;;;;;;-6.97;79.57;97700.09;4991339;28;20137;-77
2023/02/09 05:57:36;;;;;;;17.88;7.28;;;;;;;-7.00;79.76;97695.94;4991626;28;20502;-79
2023/02/09 06:00:04;;;;;;;14.15;6.85;;;;;;;-6.99;79.72;97694.16;4991213;28;20050;-79
2023/02/09 06:02:31;;;;;;;14.63;6.85;;;;;;;-7.07;79.88;97702.94;4991730;28;20054;-82
2023/02/09 06:04:57;;;;;;;15.00;6.90;;;;;;;-7.02;79.98;97708.56;4992080;28;20050;-76
2023/02/09 06:07:24;;;;;;;15.65;7.05;;;;;;;-7.05;79.95;97706.25;4991131;28;20050;-80
2023/02/09 06:09:51;;;;;;;16.95;7.00;;;;;;;-7.03;80.08;97711.38;4991627;28;20061;-78
2023/02/09 06:12:18;;;;;;;14.70;6.82;;;;;;;-6.99;79.96;97710.03;4991120;28;20073;-80
2023/02/09 06:14:44;;;;;;;15.43;6.45;;;;;;;-6.98;80.09;97703.75;4991558;28;20065;-78
2023/02/09 06:17:11;;;;;;;18.08;7.13;;;;;;;-6.98;79.67;97719.63;4990774;28;20058;-76
2023/02/09 06:19:37;;;;;;;17.25;7.53;;;;;;;-6.96;80.33;97720.28;4991800;28;20514;-81
2023/02/09 06:22:04;;;;;;;17.45;7.05;;;;;;;-6.95;80.19;97720.09;4991144;28;20470;-80
2023/02/09 06:24:30;;;;;;;20.15;7.97;;;;;;;-7.00;80.26;97721.59;4989688;28;20506;-81
2023/02/09 06:26:58;;;;;;;18.33;7.28;;;;;;;-7.02;80.25;97734.22;4992172;28;20054;-82
2023/02/09 06:29:25;;;;;;;17.73;7.72;;;;;;;-7.06;79.95;97739.00;4991311;28;20038;-80
2023/02/09 06:31:51;;;;;;;18.27;7.00;;;;;;;-7.08;79.62;97737.56;4991880;28;20053;-77
2023/02/09 06:34:18;;;;;;;14.77;7.70;;;;;;;-7.15;79.47;97727.66;4990934;28;20517;-81
2023/02/09 06:36:44;;;;;;;18.25;7.53;;;;;;;-7.14;78.97;97731.13;4991498;28;20664;-81
2023/02/09 06:39:11;;;;;;;15.07;6.88;;;;;;;-7.18;79.12;97735.09;4990884;28;20046;-76
2023/02/09 06:41:38;;;;;;;18.15;7.35;;;;;;;-7.15;79.52;97751.47;4991546;28;20073;-83
2023/02/09 06:44:06;;;;;;;14.85;6.72;;;;;;;-7.11;79.68;97750.13;4990822;28;20054;-79
2023/02/09 06:46:33;;;;;;;16.77;7.55;;;;;;;-7.15;79.67;97751.47;4991426;28;20558;-83
2023/02/09 06:48:59;;;;;;;15.05;7.15;;;;;;;-7.04;79.58;97746.81;4991449;28;20418;-80
2023/02/09 06:51:26;;;;;;;13.50;6.45;;;;;;;-7.02;79.57;97744.78;4990767;28;20049;-77
2023/02/09 06:53:52;;;;;;;14.20;7.47;;;;;;;-7.00;79.39;97748.09;4991384;28;20042;-77
2023/02/09 06:56:19;;;;;;;19.77;7.72;;;;;;;-6.97;79.63;97755.69;4991303;28;20525;-83
2023/02/09 06:58:45;;;;;;;18.52;6.90;;;;;;;-6.91;79.63;97752.34;4991590;28;20042;-81
2023/02/09 07:01:15;;;;;;;15.60;7.15;;;;;;;-6.86;79.43;97750.81;4990571;28;20424;-81
2023/02/09 07:03:42;;;;;;;17.67;8.38;;;;;;;-6.81;79.11;97747.66;4990837;28;20053;-83
2023/02/09 07:06:11;;;;;;;19.63;8.48;;;;;;;-6.79;78.57;97756.25;4990427;28;20675;-78
2023/02/09 07:08:39;;;;;;;16.98;8.48;;;;;;;-6.70;78.15;97757.03;4990164;28;20050;-79
2023/02/09 07:11:07;;;;;;;23.05;9.13;;;;;;;-6.66;77.90;97751.22;4990402;28;20703;-78
2023/02/09 07:13:34;;;;;;;19.45;7.80;;;;;;;-6.63;77.87;97753.53;4990371;28;20050;-77
2023/02/09 07:16:02;;;;;;;19.20;8.02;;;;;;;-6.52;77.50;97751.47;4990702;28;20046;-78
2023/02/09 07:18:30;;;;;;;17.50;6.65;;;;;;;-6.42;77.27;97758.19;4990367;28;20042;-82
2023/02/09 07:20:59;;;;;;;17.63;7.63;;;;;;;-6.33;77.46;97757.13;4990421;28;20050;-79
2023/02/09 07:23:26;;;;;;;17.27;6.28;;;;;;;-6.24;77.14;97749.94;4979871;28;20508;-79
2023/02/09 07:25:53;;;;;;;16.27;7.38;;;;;;;-6.18;76.53;97753.69;4990325;28;20058;-80
2023/02/09 07:28:20;;;;;;;19.55;7.07;;;;;;;-6.05;76.46;97754.75;4990550;28;20054;-80
2023/02/09 07:30:48;;;;;;;14.38;6.25;;;;;;;-5.94;75.89;97752.69;4991067;28;20042;-78
2023/02/09 07:33:16;;;;;;;18.35;7.18;;;;;;;-5.89;75.41;97755.59;4990230;28;20057;-80
2023/02/09 07:35:44;;;;;;;17.65;6.57;;;;;;;-5.85;75.33;97754.22;4990971;28;20085;-81
2023/02/09 07:38:10;;;;;;;14.23;6.40;;;;;;;-5.77;75.29;97748.84;4990952;28;20069;-81
2023/02/09 07:40:38;;;;;;;14.98;6.82;;;;;;;-5.70;74.62;97751.59;4991357;28;20068;-81
2023/02/09 07:43:05;;;;;;;14.40;6.55;;;;;;;-5.65;73.87;97754.53;4991242;28;20506;-83
2023/02/09 07:45:32;;;;;;;16.75;7.57;;;;;;;-5.57;74.16;97752.63;4992083;28;20046;-83
2023/02/09 07:47:59;;;;;;;14.52;6.30;;;;;;;-5.44;73.97;97759.13;4992010;28;20054;-79
2023/02/09 07:50:26;;;;;;;15.80;7.65;;;;;;;-5.46;73.89;97763.78;4990945;28;20049;-84
2023/02/09 07:52:54;;;;;;;17.15;7.35;;;;;;;-5.45;73.43;97766.25;4991537;28;20054;-82
2023/02/09 07:55:20;;;;;;;17.33;7.00;;;;;;;-5.35;73.20;97768.66;4991840;28;20038;-81
2023/02/09 07:57:47;;;;;;;14.82;6.97;;;;;;;-5.34;72.72;97772.94;4991961;28;20046;-79
2023/02/09 08:00:14;;;;;;;14.20;6.88;;;;;;;-5.34;73.04;97775.59;4991185;28;20050;-83
2023/02/09 08:02:41;;;;;;;17.52;7.40;;;;;;;-5.22;73.21;97771.50;4991557;28;20426;-81
2023/02/09 08:05:14;;;;;;;12.90;6.80;;;;;;;-5.07;73.21;97780.25;4990882;28;20073;-79
2023/02/09 08:07:40;;;;;;;16.10;7.65;;;;;;;-4.88;71.87;97780.72;4991455;28;20591;-84
2023/02/09 08:10:09;;;;;;;15.68;6.80;;;;;;;-4.79;72.37;97771.66;4990901;28;20050;-82
2023/02/09 08:15:21;;;;;;;16.95;7.13;;;;;;;-4.46;71.68;97767.53;4990591;28;20077;-81
2023/02/09 08:17:50;;;;;;;15.85;7.00;;;;;;;-4.31;70.89;97769.31;4990447;28;20050;-79
2023/02/09 08:20:18;;;;;;;14.90;7.00;;;;;;;-4.16;70.43;97771.91;4991661;28;20050;-79
2023/02/09 08:22:48;;;;;;;14.82;7.10;;;;;;;-4.02;70.80;97773.66;4994054;28;20053;-77
2023/02/09 08:25:19;;;;;;;17.05;7.25;;;;;;;-3.80;69.82;97775.31;4994236;28;20118;-77
2023/02/09 08:27:46;;;;;;;18.63;7.28;;;;;;;-3.61;69.19;97767.66;4995149;28;20137;-77
2023/02/09 08:30:16;;;;;;;17.05;7.75;;;;;;;-3.44;67.94;97769.03;4995069;28;20058;-77
2023/02/09 08:32:42;;;;;;;20.15;7.75;;;;;;;-3.24;68.11;97763.81;4995522;28;20046;-77
2023/02/09 08:35:10;;;;;;;14.45;7.32;;;;;;;-2.95;68.15;97770.75;4994344;28;20066;-77
2023/02/09 08:37:36;;;;;;;15.93;7.32;;;;;;;-2.43;68.03;97775.50;4994304;28;20049;-77
2023/02/09 08:40:03;;;;;;;16.17;7.55;;;;;;;-1.53;64.48;97776.03;4993621;28;20054;-78
2023/02/09 08:42:31;;;;;;;15.98;8.05;;;;;;;-0.45;62.38;97768.34;4994047;28;20050;-76
2023/02/09 08:44:58;;;;;;;14.55;6.88;;;;;;;0.86;58.54;97759.56;4994989;28;20054;-77
2023/02/09 08:47:24;;;;;;;13.77;6.90;;;;;;;1.53;54.45;97756.97;4993988;28;20065;-77
2023/02/09 08:49:50;;;;;;;13.38;7.28;;;;;;;1.69;52.43;97759.03;4993934;28;20506;-75
2023/02/09 08:52:17;;;;;;;13.52;6.55;;;;;;;2.20;52.93;97755.00;4993057;28;20046;-76
2023/02/09 08:54:43;;;;;;;12.60;6.55;;;;;;;2.27;49.50;97753.03;4993588;28;20049;-74
2023/02/09 08:57:10;;;;;;;14.18;6.32;;;;;;;1.95;51.01;97748.97;4994374;28;20050;-74
2023/02/09 08:59:38;;;;;;;12.32;6.00;;;;;;;1.73;50.91;97752.16;4994183;28;20399;-73
2023/02/09 09:02:05;;;;;;;13.73;6.32;;;;;;;0.69;52.33;97747.78;4993664;28;20442;-74
2023/02/09 09:04:32;;;;;;;16.20;6.70;;;;;;;0.31;54.25;97755.94;4993698;28;20513;-74
2023/02/09 09:06:58;;;;;;;11.15;6.13;;;;;;;0.03;55.43;97754.50;4993578;28;20415;-77
2023/02/09 09:09:25;;;;;;;10.52;6.05;;;;;;;-0.31;56.02;97753.06;4993344;28;20046;-74
2023/02/09 09:11:51;;;;;;;14.27;6.65;;;;;;;-0.24;56.62;97758.38;4993328;28;20043;-74
2023/02/09 09:14:18;;;;;;;13.57;6.90;;;;;;;-0.21;57.18;97768.63;4993448;28;20042;-74
2023/02/09 09:16:46;;;;;;;14.63;6.07;;;;;;;-0.42;57.55;97759.88;4993535;28;20793;-74
2023/02/09 09:19:12;;;;;;;15.32;6.53;;;;;;;-0.47;58.56;97759.72;4993478;28;20050;-75
2023/02/09 09:21:39;;;;;;;17.27;6.63;;;;;;;-0.75;58.52;97761.88;4993407;28;20120;-75
2023/02/09 09:24:05;;;;;;;15.73;6.95;;;;;;;-0.44;58.23;97758.47;4992830;28;20049;-76
2023/02/09 09:26:33;;;;;;;14.23;7.07;;;;;;;-0.57;59.29;97760.19;4992905;28;20061;-75
2023/02/09 09:28:59;;;;;;;15.05;6.65;;;;;;;-0.35;59.05;97747.31;4994080;28;20061;-74
2023/02/09 09:31:26;;;;;;;20.00;7.03;;;;;;;0.14;58.39;97751.09;4992046;28;20062;-74
2023/02/09 09:33:55;;;;;;;17.00;7.07;;;;;;;0.61;58.40;97748.06;4993348;28;20053;-74
2023/02/09 09:36:21;;;;;;;13.50;6.90;;;;;;;0.59;56.99;97748.28;4993343;28;20054;-75
2023/02/09 09:38:48;;;;;;;13.63;6.85;;;;;;;0.85;57.56;97751.75;4993492;28;20070;-74
2023/02/09 09:41:22;;;;;;;17.65;7.68;;;;;;;0.89;56.76;97763.66;4992752;28;20069;-74
2023/02/09 09:43:50;;;;;;;17.38;6.65;;;;;;;1.22;56.89;97763.31;4993524;28;20050;-73
2023/02/09 09:46:19;;;;;;;15.65;7.28;;;;;;;1.28;55.95;97773.16;4992793;28;20410;-74
2023/02/09 09:48:48;;;;;;;17.65;8.02;;;;;;;1.48;55.33;97773.75;4993041;28;20050;-73
2023/02/09 09:51:20;;;;;;;28.70;9.18;;;;;;;1.47;55.31;97776.66;4992512;28;20545;-74
2023/02/09 09:53:50;;;;;;;20.70;8.27;;;;;;;1.81;54.66;97772.50;4993184;28;20042;-74
2023/02/09 09:56:19;;;;;;;25.92;7.88;;;;;;;2.09;54.80;97780.81;4992605;28;20413;-74
2023/02/09 09:58:47;;;;;;;26.15;8.70;;;;;;;2.41;54.29;97777.84;4993120;28;20426;-73
2023/02/09 10:01:15;;;;;;;21.38;9.30;;;;;;;2.49;53.09;97779.38;4991932;28;20050;-73
2023/02/09 10:03:41;;;;;;;40.17;21.40;;;;;;;2.73;56.17;97786.44;4992667;28;20057;-74
2023/02/09 10:06:15;;;;;;;18.88;10.35;;;;;;;3.44;51.24;97786.38;4991961;28;20414;-75
2023/02/09 10:08:49;;;;;;;17.80;9.45;;;;;;;3.79;49.19;97783.59;4992590;28;20061;-75
2023/02/09 10:11:17;;;;;;;19.52;9.15;;;;;;;3.86;49.61;97785.13;4992743;28;20125;-75
2023/02/09 10:13:48;;;;;;;20.50;10.63;;;;;;;3.85;49.59;97783.47;4992187;28;20414;-75
2023/02/09 10:16:16;;;;;;;21.35;11.75;;;;;;;3.89;49.53;97783.81;4991989;28;20047;-75
2023/02/09 10:18:43;;;;;;;35.38;13.35;;;;;;;3.47;49.90;97786.72;4992427;28;20138;-74
2023/02/09 10:21:13;;;;;;;20.10;10.55;;;;;;;3.88;50.46;97788.38;4992162;28;20108;-75
2023/02/09 10:23:42;;;;;;;28.15;12.77;;;;;;;4.15;48.35;97782.41;4991974;28;20049;-74
2023/02/09 10:26:23;;;;;;;21.85;12.25;;;;;;;3.99;48.40;97780.50;4992330;28;20050;-74
2023/02/09 10:28:52;;;;;;;24.98;12.38;;;;;;;3.66;49.16;97779.31;4992992;28;20070;-74
2023/02/09 10:31:23;;;;;;;21.98;11.57;;;;;;;3.76;49.05;97782.22;4991691;28;20062;-77
2023/02/09 10:33:55;;;;;;;23.42;12.60;;;;;;;4.32;48.79;97777.84;4992146;28;20143;-75
2023/02/09 10:36:28;;;;;;;23.63;13.27;;;;;;;4.64;47.50;97770.03;4991722;28;20054;-75
2023/02/09 10:39:15;;;;;;;25.52;12.35;;;;;;;5.03;47.78;97761.19;4992356;28;20050;-75
2023/02/09 10:41:46;;;;;;;28.42;12.63;;;;;;;5.14;47.58;97763.78;4991495;28;20677;-76
2023/02/09 10:44:19;;;;;;;29.65;12.93;;;;;;;5.65;45.85;97758.25;4991098;28;20053;-76
2023/02/09 10:46:46;;;;;;;28.60;12.85;;;;;;;5.84;45.42;97756.81;4993093;28;20081;-76
2023/02/09 10:49:27;;;;;;;36.33;13.15;;;;;;;5.95;44.66;97755.09;4992778;28;20058;-76
2023/02/09 10:52:05;;;;;;;48.20;14.57;;;;;;;6.07;44.65;97755.78;4993498;28;20051;-76
2023/02/09 10:54:32;;;;;;;50.90;14.10;;;;;;;6.04;44.51;97750.06;4992923;28;20039;-74
2023/02/09 10:56:59;;;;;;;33.83;13.30;;;;;;;5.88;44.10;97752.56;4993744;28;20510;-76
2023/02/09 10:59:26;;;;;;;22.70;13.20;;;;;;;4.93;46.24;97740.25;4993784;28;20053;-75
2023/02/09 11:01:56;;;;;;;25.92;13.10;;;;;;;4.53;47.00;97745.84;4994390;28;20057;-74
2023/02/09 11:04:24;;;;;;;30.17;13.10;;;;;;;4.49;48.69;97739.28;4994838;28;20116;-76
2023/02/09 11:06:54;;;;;;;27.00;12.65;;;;;;;4.83;47.92;97735.53;4998117;28;20521;-76
2023/02/09 11:09:26;;;;;;;26.88;12.65;;;;;;;4.84;48.00;97720.16;4996093;28;20072;-75
2023/02/09 11:11:53;;;;;;;34.53;14.50;;;;;;;4.57;48.53;97736.19;4996421;28;20057;-76
2023/02/09 11:14:22;;;;;;;27.45;12.75;;;;;;;4.54;47.79;97739.38;4995377;28;20292;-76
2023/02/09 11:17:15;;;;;;;30.23;12.90;;;;;;;4.52;48.74;97738.81;4995995;28;20061;-76
2023/02/09 11:20:06;;;;;;;25.00;12.35;;;;;;;4.51;47.05;97735.31;4995770;28;20042;-76
2023/02/09 11:22:52;;;;;;;24.23;11.75;;;;;;;4.29;48.68;97729.81;4995558;28;20069;-76
2023/02/09 11:25:24;;;;;;;21.42;11.38;;;;;;;4.38;49.20;97727.53;4991421;28;20045;-76
2023/02/09 11:28:23;;;;;;;18.77;11.45;;;;;;;4.17;48.46;97718.25;4992480;28;20054;-76
2023/02/09 11:31:24;;;;;;;27.58;11.35;;;;;;;4.20;49.40;97720.50;4985097;28;20042;-77
2023/02/09 11:34:00;;;;;;;22.63;11.60;;;;;;;4.27;47.98;97725.72;4992274;28;20591;-76
2023/02/09 11:36:43;;;;;;;24.75;10.38;;;;;;;4.22;48.42;97718.34;4991012;28;20054;-76
2023/02/09 11:39:17;;;;;;;22.75;11.65;;;;;;;4.34;48.45;97716.41;4990148;28;20038;-76
2023/02/09 11:44:41;;;;;;;19.83;10.63;;;;;;;4.89;47.66;97723.72;4990428;28;20189;-76
2023/02/09 11:47:15;;;;;;;19.95;10.45;;;;;;;5.33;47.88;97721.09;4990425;28;20057;-76